Archival Weather

NSFA McMurdo Sound

NSFA McMurdo Sound, Antarctica (NZCM)

Report from: Friday, September 23, 2022 8:25 AM UTC
Current time: Sunday, December 4, 2022 12:56 PM UTC

Current weather
Weather history
Weather forecast

Present weatherLight snow, mist
Temperature-20.5°C (-4.9°F)
Wind chill-32.8°C (-27.0°F)
Dew point-24.5°C (-12.1°F)
Winds 15 kts (7.7 m/s, 17.3 mph) Vrb
Wind gusts 22 kts (11.3 m/s, 25.3 mph)
Winds variableWinds variable from East (100°) to South (170°)
Peak wind 29 kts (14.9 m/s, 33.4 mph) East-Southeast (120°) at 03:11
Visibility1.1 mi. (1.7 km)
Clouds Ceiling: Overcast 1,800 ft. (549 m)
Altimeter28.67 in.Hg (971 mB)
Precip. events Snow ended 8:18 AM
Snow began 8:25 AM
Relative humidity70 %
Density altitude-3,035 ft. (-925 m)
Sea-level pressure107.1 kPa (1071 mB, 31.64 in.Hg)
Remarks Fully automated report
System requires maintenance
Special weather observation
Automated weather observing station with precipitation discriminator
Variable
Flight conditions Instrument Meteorological Conditions
Raw dataSPECI NZCM 230825Z AUTO 12015G22KT 100V170 1700 -SN BR OVC018 M20/M25 A2867 RMK AO2 PK WND 12029/0811 SNE0818B0825 OVC V BKN SLP714 T12051245 $
An error has occurred. This application may no longer respond until reloaded. Reload 🗙